sensor_id;sensor_type;location;lat;lon;timestamp;pressure;altitude;pressure_sealevel;temperature;humidity
43488;BME280;29078;41.932;25.554;2023-04-09T00:02:09;99936.38;;;10.68;57.21
43488;BME280;29078;41.932;25.554;2023-04-09T00:04:35;99970.50;;;10.86;57.72
43488;BME280;29078;41.932;25.554;2023-04-09T00:07:00;99965.41;;;10.85;57.60
43488;BME280;29078;41.932;25.554;2023-04-09T00:09:25;99964.41;;;10.86;56.95
43488;BME280;29078;41.932;25.554;2023-04-09T00:11:51;99884.97;;;10.32;57.22
43488;BME280;29078;41.932;25.554;2023-04-09T00:14:16;99910.03;;;10.44;57.33
43488;BME280;29078;41.932;25.554;2023-04-09T00:16:42;99899.13;;;10.39;57.64
43488;BME280;29078;41.932;25.554;2023-04-09T00:19:07;99900.66;;;10.41;57.08
43488;BME280;29078;41.932;25.554;2023-04-09T00:21:32;99934.94;;;10.58;57.27
43488;BME280;29078;41.932;25.554;2023-04-09T00:23:58;99886.47;;;10.26;57.47
43488;BME280;29078;41.932;25.554;2023-04-09T00:26:23;99971.03;;;10.73;57.54
43488;BME280;29078;41.932;25.554;2023-04-09T00:28:48;99927.88;;;10.42;57.70
43488;BME280;29078;41.932;25.554;2023-04-09T00:31:14;99824.16;;;9.84;57.58
43488;BME280;29078;41.932;25.554;2023-04-09T00:33:40;99970.72;;;10.68;57.71
43488;BME280;29078;41.932;25.554;2023-04-09T00:36:06;99973.88;;;10.64;57.88
43488;BME280;29078;41.932;25.554;2023-04-09T00:38:31;99965.63;;;10.59;57.77
43488;BME280;29078;41.932;25.554;2023-04-09T00:40:57;99960.34;;;10.50;57.83
43488;BME280;29078;41.932;25.554;2023-04-09T00:43:22;99911.00;;;10.18;58.47
43488;BME280;29078;41.932;25.554;2023-04-09T00:45:48;99930.31;;;10.03;58.06
43488;BME280;29078;41.932;25.554;2023-04-09T00:48:14;99933.13;;;10.26;57.99
43488;BME280;29078;41.932;25.554;2023-04-09T00:50:41;99905.41;;;10.05;58.70
43488;BME280;29078;41.932;25.554;2023-04-09T00:53:07;99966.63;;;10.25;58.38
43488;BME280;29078;41.932;25.554;2023-04-09T00:55:34;99848.34;;;9.47;58.78
43488;BME280;29078;41.932;25.554;2023-04-09T00:58:00;99946.13;;;10.03;58.96
43488;BME280;29078;41.932;25.554;2023-04-09T01:00:26;99891.91;;;9.76;59.03
43488;BME280;29078;41.932;25.554;2023-04-09T01:02:52;99961.47;;;10.07;58.82
43488;BME280;29078;41.932;25.554;2023-04-09T01:05:20;99965.28;;;10.13;59.40
43488;BME280;29078;41.932;25.554;2023-04-09T01:10:41;99963.94;;;10.01;59.56
43488;BME280;29078;41.932;25.554;2023-04-09T01:13:21;99967.91;;;10.05;59.66
43488;BME280;29078;41.932;25.554;2023-04-09T01:15:51;99830.53;;;9.17;59.45
43488;BME280;29078;41.932;25.554;2023-04-09T01:21:06;99967.41;;;10.01;59.92
43488;BME280;29078;41.932;25.554;2023-04-09T01:28:41;99930.28;;;9.70;59.25
43488;BME280;29078;41.932;25.554;2023-04-09T01:31:13;99985.88;;;9.93;60.00
43488;BME280;29078;41.932;25.554;2023-04-09T01:33:40;99879.44;;;9.28;59.36
43488;BME280;29078;41.932;25.554;2023-04-09T01:36:06;99984.88;;;10.02;59.14
43488;BME280;29078;41.932;25.554;2023-04-09T01:38:34;99970.69;;;9.95;59.59
43488;BME280;29078;41.932;25.554;2023-04-09T01:41:00;99954.38;;;9.83;59.56
43488;BME280;29078;41.932;25.554;2023-04-09T01:43:27;99923.13;;;9.46;59.56
43488;BME280;29078;41.932;25.554;2023-04-09T01:45:53;99985.53;;;9.96;59.52
43488;BME280;29078;41.932;25.554;2023-04-09T01:48:19;99983.38;;;9.92;59.77
43488;BME280;29078;41.932;25.554;2023-04-09T01:50:45;99983.22;;;9.85;59.68
43488;BME280;29078;41.932;25.554;2023-04-09T01:53:12;99962.72;;;9.63;59.81
43488;BME280;29078;41.932;25.554;2023-04-09T01:55:37;99911.56;;;9.31;60.21
43488;BME280;29078;41.932;25.554;2023-04-09T01:58:03;99966.72;;;9.75;59.86
43488;BME280;29078;41.932;25.554;2023-04-09T02:00:35;99976.78;;;9.87;59.87
43488;BME280;29078;41.932;25.554;2023-04-09T02:03:09;99901.53;;;9.35;60.10
43488;BME280;29078;41.932;25.554;2023-04-09T02:05:37;99951.34;;;9.62;59.90
43488;BME280;29078;41.932;25.554;2023-04-09T02:08:06;99965.22;;;9.72;59.99
43488;BME280;29078;41.932;25.554;2023-04-09T02:10:37;99979.09;;;9.82;60.04
43488;BME280;29078;41.932;25.554;2023-04-09T02:13:04;99878.44;;;9.20;59.90
43488;BME280;29078;41.932;25.554;2023-04-09T02:15:31;99975.97;;;9.87;59.58
43488;BME280;29078;41.932;25.554;2023-04-09T02:17:58;99930.22;;;9.46;59.07
43488;BME280;29078;41.932;25.554;2023-04-09T02:20:23;99990.72;;;9.64;59.52
43488;BME280;29078;41.932;25.554;2023-04-09T02:22:49;99902.53;;;8.91;59.41
43488;BME280;29078;41.932;25.554;2023-04-09T02:25:14;99917.22;;;8.94;59.21
43488;BME280;29078;41.932;25.554;2023-04-09T02:27:40;99939.78;;;8.97;59.29
43488;BME280;29078;41.932;25.554;2023-04-09T02:30:06;99962.56;;;9.14;59.60
43488;BME280;29078;41.932;25.554;2023-04-09T02:32:31;100008.09;;;9.32;59.34
43488;BME280;29078;41.932;25.554;2023-04-09T02:34:57;99948.00;;;8.94;59.86
43488;BME280;29078;41.932;25.554;2023-04-09T02:37:22;99994.72;;;9.26;59.74
43488;BME280;29078;41.932;25.554;2023-04-09T02:39:47;99908.84;;;8.73;59.41
43488;BME280;29078;41.932;25.554;2023-04-09T02:42:13;99933.84;;;8.69;59.68
43488;BME280;29078;41.932;25.554;2023-04-09T02:44:38;99930.22;;;8.70;60.35
43488;BME280;29078;41.932;25.554;2023-04-09T02:47:03;99988.19;;;9.04;59.92
43488;BME280;29078;41.932;25.554;2023-04-09T02:49:29;99862.22;;;8.31;60.40
43488;BME280;29078;41.932;25.554;2023-04-09T02:51:54;99966.09;;;8.97;60.73
43488;BME280;29078;41.932;25.554;2023-04-09T02:54:20;99864.66;;;8.24;60.76
43488;BME280;29078;41.932;25.554;2023-04-09T02:56:45;99997.94;;;9.11;60.61
43488;BME280;29078;41.932;25.554;2023-04-09T02:59:10;99924.75;;;8.63;60.53
43488;BME280;29078;41.932;25.554;2023-04-09T03:01:36;99932.00;;;8.61;60.65
43488;BME280;29078;41.932;25.554;2023-04-09T03:04:01;99984.69;;;8.95;60.84
43488;BME280;29078;41.932;25.554;2023-04-09T03:06:27;99912.59;;;8.62;60.63
43488;BME280;29078;41.932;25.554;2023-04-09T03:08:52;99961.97;;;8.94;61.29
43488;BME280;29078;41.932;25.554;2023-04-09T03:11:18;99957.69;;;8.93;60.88
43488;BME280;29078;41.932;25.554;2023-04-09T03:13:43;100002.75;;;9.16;61.07
43488;BME280;29078;41.932;25.554;2023-04-09T03:16:08;99913.38;;;8.54;61.23
43488;BME280;29078;41.932;25.554;2023-04-09T03:18:35;99930.50;;;8.58;61.50
43488;BME280;29078;41.932;25.554;2023-04-09T03:21:04;99934.94;;;8.58;61.73
43488;BME280;29078;41.932;25.554;2023-04-09T03:23:30;100014.03;;;9.00;62.09
43488;BME280;29078;41.932;25.554;2023-04-09T03:26:03;99982.38;;;8.66;62.46
43488;BME280;29078;41.932;25.554;2023-04-09T03:28:29;99948.16;;;8.40;62.50
43488;BME280;29078;41.932;25.554;2023-04-09T03:30:55;99954.28;;;8.49;62.75
43488;BME280;29078;41.932;25.554;2023-04-09T03:33:20;99989.44;;;8.66;62.58
43488;BME280;29078;41.932;25.554;2023-04-09T03:35:46;100023.53;;;8.93;62.79
43488;BME280;29078;41.932;25.554;2023-04-09T03:38:11;99981.69;;;8.64;62.73
43488;BME280;29078;41.932;25.554;2023-04-09T03:40:37;99956.50;;;8.62;62.49
43488;BME280;29078;41.932;25.554;2023-04-09T03:43:02;99958.22;;;8.71;62.34
43488;BME280;29078;41.932;25.554;2023-04-09T03:45:28;100000.03;;;9.00;62.32
43488;BME280;29078;41.932;25.554;2023-04-09T03:47:54;99989.50;;;9.00;62.09
43488;BME280;29078;41.932;25.554;2023-04-09T03:50:20;99981.84;;;8.88;62.22
43488;BME280;29078;41.932;25.554;2023-04-09T03:52:45;99914.94;;;8.39;62.20
43488;BME280;29078;41.932;25.554;2023-04-09T03:55:11;99956.44;;;8.79;62.10
43488;BME280;29078;41.932;25.554;2023-04-09T03:57:36;100003.97;;;8.96;62.40
43488;BME280;29078;41.932;25.554;2023-04-09T04:00:02;99990.66;;;8.79;62.79
43488;BME280;29078;41.932;25.554;2023-04-09T04:02:28;100032.63;;;8.99;62.90
43488;BME280;29078;41.932;25.554;2023-04-09T04:05:00;99959.34;;;8.07;63.14
43488;BME280;29078;41.932;25.554;2023-04-09T04:07:25;99912.63;;;8.18;63.00
43488;BME280;29078;41.932;25.554;2023-04-09T04:09:51;99937.41;;;8.34;63.22
43488;BME280;29078;41.932;25.554;2023-04-09T04:12:16;99975.97;;;8.69;62.88
43488;BME280;29078;41.932;25.554;2023-04-09T04:14:42;100003.28;;;8.94;62.83
43488;BME280;29078;41.932;25.554;2023-04-09T04:17:07;99986.38;;;8.78;62.38
43488;BME280;29078;41.932;25.554;2023-04-09T04:19:33;100025.13;;;9.12;62.73
43488;BME280;29078;41.932;25.554;2023-04-09T04:21:58;99971.56;;;8.77;62.34
43488;BME280;29078;41.932;25.554;2023-04-09T04:24:23;99989.72;;;8.88;62.94
43488;BME280;29078;41.932;25.554;2023-04-09T04:26:49;100006.78;;;9.02;62.94
43488;BME280;29078;41.932;25.554;2023-04-09T04:29:14;99971.69;;;8.68;62.52
43488;BME280;29078;41.932;25.554;2023-04-09T04:31:40;99994.66;;;8.83;63.04
43488;BME280;29078;41.932;25.554;2023-04-09T04:34:05;100036.31;;;9.14;63.13
43488;BME280;29078;41.932;25.554;2023-04-09T04:36:30;99946.13;;;8.60;63.08
43488;BME280;29078;41.932;25.554;2023-04-09T04:38:56;99959.22;;;8.78;62.83
43488;BME280;29078;41.932;25.554;2023-04-09T04:41:21;99962.72;;;8.86;62.87
43488;BME280;29078;41.932;25.554;2023-04-09T04:43:47;99961.59;;;8.89;62.98
43488;BME280;29078;41.932;25.554;2023-04-09T04:46:12;99968.97;;;8.85;62.49
43488;BME280;29078;41.932;25.554;2023-04-09T04:48:37;99961.88;;;8.78;62.57
43488;BME280;29078;41.932;25.554;2023-04-09T04:51:03;100039.53;;;9.34;62.80
43488;BME280;29078;41.932;25.554;2023-04-09T04:53:28;99966.19;;;8.87;62.73
43488;BME280;29078;41.932;25.554;2023-04-09T04:55:54;99898.25;;;8.13;62.34
43488;BME280;29078;41.932;25.554;2023-04-09T04:58:19;100030.63;;;9.27;62.95
43488;BME280;29078;41.932;25.554;2023-04-09T05:00:45;99999.41;;;9.06;62.96
43488;BME280;29078;41.932;25.554;2023-04-09T05:03:11;100012.25;;;9.09;62.78
43488;BME280;29078;41.932;25.554;2023-04-09T05:05:36;100029.44;;;9.21;62.92
43488;BME280;29078;41.932;25.554;2023-04-09T05:08:02;99965.47;;;8.77;62.68
43488;BME280;29078;41.932;25.554;2023-04-09T05:10:27;100038.72;;;9.33;62.58
43488;BME280;29078;41.932;25.554;2023-04-09T05:12:52;100066.59;;;9.44;62.45
43488;BME280;29078;41.932;25.554;2023-04-09T05:15:18;99959.78;;;8.89;62.50
43488;BME280;29078;41.932;25.554;2023-04-09T05:17:44;100058.53;;;9.45;62.61
43488;BME280;29078;41.932;25.554;2023-04-09T05:20:10;99968.50;;;8.90;62.21
43488;BME280;29078;41.932;25.554;2023-04-09T05:22:35;99983.63;;;9.14;62.36
43488;BME280;29078;41.932;25.554;2023-04-09T05:25:01;100065.38;;;9.64;62.20
43488;BME280;29078;41.932;25.554;2023-04-09T05:27:27;100012.84;;;9.29;62.63
43488;BME280;29078;41.932;25.554;2023-04-09T05:29:53;100024.91;;;9.39;62.33
43488;BME280;29078;41.932;25.554;2023-04-09T05:32:18;100062.69;;;9.56;62.63
43488;BME280;29078;41.932;25.554;2023-04-09T05:34:44;99988.91;;;9.14;62.61
43488;BME280;29078;41.932;25.554;2023-04-09T05:37:10;100048.88;;;9.62;62.17
43488;BME280;29078;41.932;25.554;2023-04-09T05:39:35;99952.16;;;9.04;62.35
43488;BME280;29078;41.932;25.554;2023-04-09T05:42:01;100068.91;;;9.81;62.05
43488;BME280;29078;41.932;25.554;2023-04-09T05:44:26;100042.84;;;9.70;61.83
43488;BME280;29078;41.932;25.554;2023-04-09T05:46:51;100042.53;;;9.73;62.17
43488;BME280;29078;41.932;25.554;2023-04-09T05:49:17;100003.22;;;9.53;61.61
43488;BME280;29078;41.932;25.554;2023-04-09T05:51:42;100003.06;;;9.63;61.66
43488;BME280;29078;41.932;25.554;2023-04-09T05:54:08;100071.63;;;10.05;61.38
43488;BME280;29078;41.932;25.554;2023-04-09T05:56:33;100020.47;;;9.82;61.31
43488;BME280;29078;41.932;25.554;2023-04-09T05:58:59;100065.84;;;10.10;61.26
43488;BME280;29078;41.932;25.554;2023-04-09T06:01:24;99987.25;;;9.55;61.41
43488;BME280;29078;41.932;25.554;2023-04-09T06:03:50;100000.16;;;9.66;61.11
43488;BME280;29078;41.932;25.554;2023-04-09T06:06:15;100062.22;;;10.03;60.94
43488;BME280;29078;41.932;25.554;2023-04-09T06:08:41;99922.63;;;9.35;61.10
43488;BME280;29078;41.932;25.554;2023-04-09T06:11:10;100005.97;;;9.86;60.64
43488;BME280;29078;41.932;25.554;2023-04-09T06:13:36;100014.38;;;9.81;60.63
43488;BME280;29078;41.932;25.554;2023-04-09T06:16:08;99986.75;;;9.60;60.95
43488;BME280;29078;41.932;25.554;2023-04-09T06:18:35;100013.34;;;9.74;61.10
43488;BME280;29078;41.932;25.554;2023-04-09T06:21:02;100067.66;;;10.09;60.86
43488;BME280;29078;41.932;25.554;2023-04-09T06:23:28;100011.38;;;9.68;60.71
43488;BME280;29078;41.932;25.554;2023-04-09T06:25:53;99966.44;;;9.36;60.94
43488;BME280;29078;41.932;25.554;2023-04-09T06:28:18;100009.81;;;9.57;60.44
43488;BME280;29078;41.932;25.554;2023-04-09T06:30:44;100004.03;;;9.54;60.54
43488;BME280;29078;41.932;25.554;2023-04-09T06:33:11;100053.59;;;9.84;60.46
43488;BME280;29078;41.932;25.554;2023-04-09T06:35:36;100017.97;;;9.72;60.68
43488;BME280;29078;41.932;25.554;2023-04-09T06:38:02;99980.81;;;9.57;60.58
43488;BME280;29078;41.932;25.554;2023-04-09T06:40:27;100024.72;;;9.75;60.49
43488;BME280;29078;41.932;25.554;2023-04-09T06:42:52;100092.25;;;10.18;60.51
43488;BME280;29078;41.932;25.554;2023-04-09T06:45:18;100104.47;;;10.19;60.74
43488;BME280;29078;41.932;25.554;2023-04-09T06:47:43;100006.59;;;9.72;60.61
43488;BME280;29078;41.932;25.554;2023-04-09T06:50:09;99989.59;;;9.66;60.61
43488;BME280;29078;41.932;25.554;2023-04-09T06:52:34;99953.47;;;9.50;60.22
43488;BME280;29078;41.932;25.554;2023-04-09T06:55:00;99998.06;;;9.86;59.88
43488;BME280;29078;41.932;25.554;2023-04-09T06:57:25;99987.66;;;9.84;59.68
43488;BME280;29078;41.932;25.554;2023-04-09T06:59:51;100009.78;;;10.08;60.22
43488;BME280;29078;41.932;25.554;2023-04-09T07:02:16;100000.88;;;10.01;60.03
43488;BME280;29078;41.932;25.554;2023-04-09T07:04:42;100058.34;;;10.39;59.67
43488;BME280;29078;41.932;25.554;2023-04-09T07:07:07;100055.56;;;10.41;59.86
43488;BME280;29078;41.932;25.554;2023-04-09T07:09:32;99980.25;;;9.88;59.46
43488;BME280;29078;41.932;25.554;2023-04-09T07:11:58;100063.31;;;10.42;60.06
43488;BME280;29078;41.932;25.554;2023-04-09T07:14:23;99999.22;;;10.08;60.00
43488;BME280;29078;41.932;25.554;2023-04-09T07:16:49;100032.09;;;10.22;59.38
43488;BME280;29078;41.932;25.554;2023-04-09T07:19:14;100007.34;;;10.31;58.99
43488;BME280;29078;41.932;25.554;2023-04-09T07:21:39;100062.50;;;10.66;58.83
43488;BME280;29078;41.932;25.554;2023-04-09T07:24:05;100068.25;;;10.78;59.39
43488;BME280;29078;41.932;25.554;2023-04-09T07:26:31;100010.69;;;10.41;58.71
43488;BME280;29078;41.932;25.554;2023-04-09T07:28:57;100077.81;;;10.95;58.48
43488;BME280;29078;41.932;25.554;2023-04-09T07:31:23;100070.69;;;11.04;58.34
43488;BME280;29078;41.932;25.554;2023-04-09T07:33:48;100035.38;;;10.89;57.88
43488;BME280;29078;41.932;25.554;2023-04-09T07:36:14;100061.09;;;11.11;58.00
43488;BME280;29078;41.932;25.554;2023-04-09T07:38:39;100083.41;;;11.25;57.98
43488;BME280;29078;41.932;25.554;2023-04-09T07:41:05;100069.00;;;11.35;57.15
43488;BME280;29078;41.932;25.554;2023-04-09T07:43:31;100050.06;;;11.16;57.59
43488;BME280;29078;41.932;25.554;2023-04-09T07:45:56;100015.19;;;11.12;56.80
43488;BME280;29078;41.932;25.554;2023-04-09T07:48:21;100072.91;;;11.48;57.49
43488;BME280;29078;41.932;25.554;2023-04-09T07:50:47;100055.41;;;11.46;56.79
43488;BME280;29078;41.932;25.554;2023-04-09T07:53:12;100021.25;;;11.37;56.27
43488;BME280;29078;41.932;25.554;2023-04-09T07:55:39;100086.34;;;11.85;56.02
43488;BME280;29078;41.932;25.554;2023-04-09T07:58:04;100035.19;;;11.62;56.47
43488;BME280;29078;41.932;25.554;2023-04-09T08:00:30;100034.13;;;11.71;55.77
43488;BME280;29078;41.932;25.554;2023-04-09T08:02:56;100008.78;;;11.54;55.66
43488;BME280;29078;41.932;25.554;2023-04-09T08:05:22;100087.34;;;11.92;55.38
43488;BME280;29078;41.932;25.554;2023-04-09T08:07:47;100043.41;;;11.67;56.14
43488;BME280;29078;41.932;25.554;2023-04-09T08:10:12;100076.06;;;11.98;55.90
43488;BME280;29078;41.932;25.554;2023-04-09T08:12:40;100048.31;;;11.86;54.84
43488;BME280;29078;41.932;25.554;2023-04-09T08:15:06;100063.13;;;12.03;55.07
43488;BME280;29078;41.932;25.554;2023-04-09T08:17:31;100063.72;;;12.14;55.09
43488;BME280;29078;41.932;25.554;2023-04-09T08:19:57;100061.19;;;12.20;54.41
43488;BME280;29078;41.932;25.554;2023-04-09T08:22:22;99995.47;;;12.01;54.38
43488;BME280;29078;41.932;25.554;2023-04-09T08:24:51;99994.00;;;12.21;53.37
43488;BME280;29078;41.932;25.554;2023-04-09T08:27:17;99962.78;;;12.17;53.19
43488;BME280;29078;41.932;25.554;2023-04-09T08:29:43;100032.81;;;12.75;52.79
43488;BME280;29078;41.932;25.554;2023-04-09T08:32:08;100089.06;;;13.14;53.10
43488;BME280;29078;41.932;25.554;2023-04-09T08:34:33;100006.25;;;12.60;52.77
43488;BME280;29078;41.932;25.554;2023-04-09T08:36:59;100065.56;;;12.96;52.66
43488;BME280;29078;41.932;25.554;2023-04-09T08:39:24;100015.66;;;12.85;51.99
43488;BME280;29078;41.932;25.554;2023-04-09T08:41:51;100085.31;;;13.46;51.77
43488;BME280;29078;41.932;25.554;2023-04-09T08:44:17;100078.78;;;13.63;51.54
43488;BME280;29078;41.932;25.554;2023-04-09T08:46:42;100033.34;;;13.52;51.02
43488;BME280;29078;41.932;25.554;2023-04-09T08:49:09;100057.75;;;13.62;50.57
43488;BME280;29078;41.932;25.554;2023-04-09T08:51:35;100063.03;;;13.77;50.44
43488;BME280;29078;41.932;25.554;2023-04-09T08:54:01;100032.00;;;13.77;50.22
43488;BME280;29078;41.932;25.554;2023-04-09T08:56:26;100075.41;;;14.20;49.65
43488;BME280;29078;41.932;25.554;2023-04-09T08:58:55;100079.78;;;14.28;49.16
43488;BME280;29078;41.932;25.554;2023-04-09T09:01:25;100073.59;;;14.42;48.85
43488;BME280;29078;41.932;25.554;2023-04-09T09:03:53;100068.78;;;14.52;48.41
43488;BME280;29078;41.932;25.554;2023-04-09T09:06:21;99997.44;;;14.28;48.32
43488;BME280;29078;41.932;25.554;2023-04-09T09:08:58;100006.28;;;14.56;47.87
43488;BME280;29078;41.932;25.554;2023-04-09T09:11:25;100034.69;;;14.84;48.09
43488;BME280;29078;41.932;25.554;2023-04-09T09:13:57;100040.78;;;14.99;48.12
43488;BME280;29078;41.932;25.554;2023-04-09T09:16:22;100003.56;;;14.78;47.09
43488;BME280;29078;41.932;25.554;2023-04-09T09:18:48;99962.38;;;14.60;46.91
43488;BME280;29078;41.932;25.554;2023-04-09T09:21:15;100049.94;;;15.24;46.86
43488;BME280;29078;41.932;25.554;2023-04-09T09:23:42;99979.50;;;14.86;46.66
43488;BME280;29078;41.932;25.554;2023-04-09T09:26:15;100032.81;;;15.40;46.76
43488;BME280;29078;41.932;25.554;2023-04-09T09:28:42;100005.59;;;15.38;46.54
43488;BME280;29078;41.932;25.554;2023-04-09T09:31:08;100051.03;;;15.71;46.00
43488;BME280;29078;41.932;25.554;2023-04-09T09:33:34;99995.19;;;15.02;46.48
43488;BME280;29078;41.932;25.554;2023-04-09T09:36:00;99988.31;;;15.21;46.27
43488;BME280;29078;41.932;25.554;2023-04-09T09:38:28;100039.53;;;15.64;46.26
43488;BME280;29078;41.932;25.554;2023-04-09T09:40:54;100042.88;;;15.79;45.98
43488;BME280;29078;41.932;25.554;2023-04-09T09:43:19;100049.47;;;15.90;45.60
43488;BME280;29078;41.932;25.554;2023-04-09T09:45:45;100038.25;;;16.08;44.87
43488;BME280;29078;41.932;25.554;2023-04-09T09:48:11;100029.66;;;16.26;44.13
43488;BME280;29078;41.932;25.554;2023-04-09T09:50:38;99990.72;;;16.11;43.84
43488;BME280;29078;41.932;25.554;2023-04-09T09:53:07;99926.97;;;16.10;43.21
43488;BME280;29078;41.932;25.554;2023-04-09T09:55:47;100014.53;;;16.92;41.41
43488;BME280;29078;41.932;25.554;2023-04-09T09:58:19;99938.69;;;16.55;41.00
43488;BME280;29078;41.932;25.554;2023-04-09T10:00:48;99963.28;;;16.83;42.04
43488;BME280;29078;41.932;25.554;2023-04-09T10:03:24;99883.13;;;16.65;41.65
43488;BME280;29078;41.932;25.554;2023-04-09T10:05:50;100018.47;;;17.67;41.42
43488;BME280;29078;41.932;25.554;2023-04-09T10:08:18;99919.91;;;17.14;41.17
43488;BME280;29078;41.932;25.554;2023-04-09T10:10:45;100000.34;;;17.76;41.08
43488;BME280;29078;41.932;25.554;2023-04-09T10:13:19;99911.78;;;17.41;40.93
43488;BME280;29078;41.932;25.554;2023-04-09T10:15:46;100006.44;;;17.96;40.62
43488;BME280;29078;41.932;25.554;2023-04-09T10:18:13;99961.28;;;17.82;40.29
43488;BME280;29078;41.932;25.554;2023-04-09T10:20:45;99957.09;;;17.99;39.92
43488;BME280;29078;41.932;25.554;2023-04-09T10:23:23;99957.50;;;18.27;38.20
43488;BME280;29078;41.932;25.554;2023-04-09T10:25:52;99905.72;;;17.97;39.35
43488;BME280;29078;41.932;25.554;2023-04-09T10:28:18;99954.94;;;18.39;39.30
43488;BME280;29078;41.932;25.554;2023-04-09T10:30:43;99932.19;;;18.30;38.54
43488;BME280;29078;41.932;25.554;2023-04-09T10:33:14;99989.94;;;18.87;37.85
43488;BME280;29078;41.932;25.554;2023-04-09T10:35:41;99931.72;;;18.58;37.61
43488;BME280;29078;41.932;25.554;2023-04-09T10:38:09;99953.66;;;18.91;37.20
43488;BME280;29078;41.932;25.554;2023-04-09T10:40:46;99963.91;;;18.94;34.89
43488;BME280;29078;41.932;25.554;2023-04-09T10:43:12;99972.69;;;19.20;36.16
43488;BME280;29078;41.932;25.554;2023-04-09T10:45:39;99974.41;;;19.51;35.87
43488;BME280;29078;41.932;25.554;2023-04-09T10:48:10;99970.69;;;19.70;34.94
43488;BME280;29078;41.932;25.554;2023-04-09T10:50:37;99885.91;;;19.27;34.98
43488;BME280;29078;41.932;25.554;2023-04-09T10:53:03;99961.28;;;19.79;34.88
43488;BME280;29078;41.932;25.554;2023-04-09T10:55:37;99894.88;;;19.51;33.88
43488;BME280;29078;41.932;25.554;2023-04-09T10:58:06;99879.00;;;19.20;34.67
43488;BME280;29078;41.932;25.554;2023-04-09T11:00:36;99860.41;;;19.25;34.59
43488;BME280;29078;41.932;25.554;2023-04-09T11:05:33;99879.50;;;19.77;33.67
43488;BME280;29078;41.932;25.554;2023-04-09T11:08:12;99867.78;;;19.59;34.01
43488;BME280;29078;41.932;25.554;2023-04-09T11:10:43;99933.41;;;20.10;34.21
43488;BME280;29078;41.932;25.554;2023-04-09T11:13:13;99864.81;;;19.79;34.16
43488;BME280;29078;41.932;25.554;2023-04-09T11:15:39;99923.34;;;20.06;34.16
43488;BME280;29078;41.932;25.554;2023-04-09T11:18:05;99900.03;;;19.94;34.14
43488;BME280;29078;41.932;25.554;2023-04-09T11:20:33;99918.72;;;20.13;33.69
43488;BME280;29078;41.932;25.554;2023-04-09T11:22:58;99902.00;;;19.99;33.58
43488;BME280;29078;41.932;25.554;2023-04-09T11:25:26;99890.19;;;19.77;33.79
43488;BME280;29078;41.932;25.554;2023-04-09T11:27:52;99849.09;;;19.83;33.33
43488;BME280;29078;41.932;25.554;2023-04-09T11:30:18;99898.22;;;20.18;33.64
43488;BME280;29078;41.932;25.554;2023-04-09T11:32:45;99905.09;;;20.26;33.50
43488;BME280;29078;41.932;25.554;2023-04-09T11:35:18;99892.56;;;19.85;32.77
43488;BME280;29078;41.932;25.554;2023-04-09T11:37:45;99902.56;;;19.78;33.88
43488;BME280;29078;41.932;25.554;2023-04-09T11:40:18;99898.06;;;20.02;33.93
43488;BME280;29078;41.932;25.554;2023-04-09T11:42:45;99878.75;;;20.23;33.55
43488;BME280;29078;41.932;25.554;2023-04-09T11:45:11;99896.50;;;20.71;33.09
43488;BME280;29078;41.932;25.554;2023-04-09T11:47:40;99854.94;;;20.85;32.59
43488;BME280;29078;41.932;25.554;2023-04-09T11:50:07;99867.78;;;20.36;32.87
43488;BME280;29078;41.932;25.554;2023-04-09T11:52:33;99832.78;;;19.84;33.54
43488;BME280;29078;41.932;25.554;2023-04-09T11:55:01;99871.31;;;19.72;33.92
43488;BME280;29078;41.932;25.554;2023-04-09T12:00:11;99866.84;;;19.54;34.02
43488;BME280;29078;41.932;25.554;2023-04-09T12:02:41;99784.59;;;18.83;34.43
43488;BME280;29078;41.932;25.554;2023-04-09T12:05:11;99816.22;;;19.04;34.38
43488;BME280;29078;41.932;25.554;2023-04-09T12:07:37;99836.19;;;19.50;34.13
43488;BME280;29078;41.932;25.554;2023-04-09T12:10:05;99842.44;;;19.85;33.82
43488;BME280;29078;41.932;25.554;2023-04-09T12:12:30;99849.25;;;20.23;33.25
43488;BME280;29078;41.932;25.554;2023-04-09T12:15:09;99808.94;;;20.29;32.66
43488;BME280;29078;41.932;25.554;2023-04-09T12:17:34;99848.06;;;20.77;32.13
43488;BME280;29078;41.932;25.554;2023-04-09T12:20:00;99813.69;;;20.51;32.30
43488;BME280;29078;41.932;25.554;2023-04-09T12:22:26;99780.59;;;20.34;32.23
43488;BME280;29078;41.932;25.554;2023-04-09T12:24:51;99827.44;;;20.66;32.06
43488;BME280;29078;41.932;25.554;2023-04-09T12:27:17;99773.13;;;20.36;32.13
43488;BME280;29078;41.932;25.554;2023-04-09T12:29:42;99782.72;;;20.08;32.58
43488;BME280;29078;41.932;25.554;2023-04-09T12:32:07;99785.13;;;19.86;32.83
43488;BME280;29078;41.932;25.554;2023-04-09T12:34:33;99762.63;;;19.52;33.05
43488;BME280;29078;41.932;25.554;2023-04-09T12:36:58;99840.34;;;19.76;33.49
43488;BME280;29078;41.932;25.554;2023-04-09T12:39:24;99809.34;;;19.56;33.23
43488;BME280;29078;41.932;25.554;2023-04-09T12:41:49;99796.94;;;19.44;33.23
43488;BME280;29078;41.932;25.554;2023-04-09T12:44:15;99782.59;;;19.38;33.02
43488;BME280;29078;41.932;25.554;2023-04-09T12:46:40;99807.16;;;19.77;33.11
43488;BME280;29078;41.932;25.554;2023-04-09T12:49:06;99745.25;;;19.43;32.79
43488;BME280;29078;41.932;25.554;2023-04-09T12:51:31;99771.50;;;19.76;32.80
43488;BME280;29078;41.932;25.554;2023-04-09T12:53:57;99819.44;;;20.08;32.80
43488;BME280;29078;41.932;25.554;2023-04-09T12:56:22;99749.72;;;19.73;32.58
43488;BME280;29078;41.932;25.554;2023-04-09T12:58:48;99798.75;;;19.85;32.51
43488;BME280;29078;41.932;25.554;2023-04-09T13:01:15;99805.50;;;19.64;32.65
43488;BME280;29078;41.932;25.554;2023-04-09T13:03:41;99722.47;;;19.22;33.01